createdAt,value
2018-12-21T00:00:50.247Z,1004.05
2018-12-21T00:01:50.206Z,1004.08
2018-12-21T00:02:50.173Z,1004.06
2018-12-21T00:03:50.139Z,1004.01
2018-12-21T00:04:50.104Z,1004.03
2018-12-21T00:05:50.072Z,1004.02
2018-12-21T00:06:50.031Z,1003.98
2018-12-21T00:07:49.993Z,1003.98
2018-12-21T00:08:49.958Z,1003.93
2018-12-21T00:09:49.934Z,1003.92
2018-12-21T00:10:49.889Z,1003.89
2018-12-21T00:11:49.852Z,1003.86
2018-12-21T00:12:49.818Z,1003.82
2018-12-21T00:13:49.783Z,1003.76
2018-12-21T00:14:49.753Z,1003.74
2018-12-21T00:15:49.718Z,1003.75
2018-12-21T00:16:49.682Z,1003.73
2018-12-21T00:17:49.650Z,1003.72
2018-12-21T00:18:49.617Z,1003.68
2018-12-21T00:19:49.568Z,1003.70
2018-12-21T00:20:49.547Z,1003.70
2018-12-21T00:21:49.506Z,1003.71
2018-12-21T00:22:49.474Z,1003.64
2018-12-21T00:23:49.434Z,1003.69
2018-12-21T00:24:49.405Z,1003.62
2018-12-21T00:25:49.372Z,1003.59
2018-12-21T00:26:49.340Z,1003.58
2018-12-21T00:27:49.309Z,1003.56
2018-12-21T00:28:49.264Z,1003.61
2018-12-21T00:29:49.243Z,1003.56
2018-12-21T00:30:49.193Z,1003.52
2018-12-21T00:31:49.163Z,1003.52
2018-12-21T00:32:49.121Z,1003.51
2018-12-21T00:33:49.089Z,1003.48
2018-12-21T00:34:49.049Z,1003.50
2018-12-21T00:35:49.019Z,1003.50
2018-12-21T00:36:48.984Z,1003.53
2018-12-21T00:37:48.954Z,1003.53
2018-12-21T00:38:48.913Z,1003.52
2018-12-21T00:39:48.888Z,1003.53
2018-12-21T00:40:48.853Z,1003.54
2018-12-21T00:41:48.822Z,1003.58
2018-12-21T00:42:48.780Z,1003.56
2018-12-21T00:43:48.737Z,1003.55
2018-12-21T00:44:48.712Z,1003.52
2018-12-21T00:45:48.699Z,1003.49
2018-12-21T00:46:48.645Z,1003.45
2018-12-21T00:47:48.595Z,1003.45
2018-12-21T00:48:48.578Z,1003.40
2018-12-21T00:49:48.535Z,1003.44
2018-12-21T00:50:48.500Z,1003.44
2018-12-21T00:51:48.461Z,1003.40
2018-12-21T00:52:48.428Z,1003.44
2018-12-21T00:53:48.394Z,1003.43
2018-12-21T00:54:48.358Z,1003.50
2018-12-21T00:55:48.315Z,1003.45
2018-12-21T00:56:48.279Z,1003.41
2018-12-21T00:57:48.254Z,1003.37
2018-12-21T00:58:48.216Z,1003.36
2018-12-21T00:59:48.189Z,1003.40
2018-12-21T01:00:48.145Z,1003.36
2018-12-21T01:01:48.106Z,1003.32
2018-12-21T01:02:48.079Z,1003.30
2018-12-21T01:03:48.041Z,1003.27
2018-12-21T01:04:48.013Z,1003.26
2018-12-21T01:05:47.981Z,1003.29
2018-12-21T01:06:47.941Z,1003.26
2018-12-21T01:07:47.900Z,1003.24
2018-12-21T01:08:47.863Z,1003.26
2018-12-21T01:09:47.841Z,1003.25
2018-12-21T01:10:47.792Z,1003.20
2018-12-21T01:11:47.769Z,1003.18
2018-12-21T01:12:47.726Z,1003.17
2018-12-21T01:13:47.692Z,1003.14
2018-12-21T01:14:47.660Z,1003.17
2018-12-21T01:15:47.631Z,1003.18
2018-12-21T01:16:47.590Z,1003.15
2018-12-21T01:17:47.551Z,1003.13
2018-12-21T01:18:47.520Z,1003.09
2018-12-21T01:19:47.484Z,1003.13
2018-12-21T01:20:47.449Z,1003.07
2018-12-21T01:21:47.411Z,1003.10
2018-12-21T01:22:47.381Z,1003.05
2018-12-21T01:23:47.346Z,1003.06
2018-12-21T01:24:47.309Z,1003.03
2018-12-21T01:25:47.276Z,1003.03
2018-12-21T01:26:47.241Z,1002.99
2018-12-21T01:27:47.212Z,1002.99
2018-12-21T01:28:47.171Z,1003.00
2018-12-21T01:29:47.140Z,1002.96
2018-12-21T01:30:47.111Z,1002.96
2018-12-21T01:31:47.064Z,1002.96
2018-12-21T01:32:47.031Z,1002.94
2018-12-21T01:33:46.997Z,1002.93
2018-12-21T01:34:46.963Z,1002.91
2018-12-21T01:35:46.922Z,1002.88
2018-12-21T01:36:46.900Z,1002.86
2018-12-21T01:37:46.852Z,1002.82
2018-12-21T01:38:46.820Z,1002.86
2018-12-21T01:39:46.786Z,1002.89
2018-12-21T01:40:46.752Z,1002.83
2018-12-21T01:41:46.712Z,1002.83
2018-12-21T01:42:46.696Z,1002.76
2018-12-21T01:43:46.652Z,1002.80
2018-12-21T01:44:46.615Z,1002.75
2018-12-21T01:45:46.580Z,1002.72
2018-12-21T01:46:46.551Z,1002.74
2018-12-21T01:47:46.511Z,1002.73
2018-12-21T01:48:46.471Z,1002.74
2018-12-21T01:49:46.444Z,1002.69
2018-12-21T01:50:46.412Z,1002.68
2018-12-21T01:51:47.173Z,1002.67
2018-12-21T01:52:46.343Z,1002.68
2018-12-21T01:53:46.298Z,1002.64
2018-12-21T01:54:46.267Z,1002.64
2018-12-21T01:55:46.228Z,1002.63
2018-12-21T01:56:46.193Z,1002.59
2018-12-21T01:57:46.174Z,1002.59
2018-12-21T01:58:46.133Z,1002.58
2018-12-21T01:59:46.095Z,1002.58
2018-12-21T02:00:46.054Z,1002.51
2018-12-21T02:01:46.026Z,1002.50
2018-12-21T02:02:45.994Z,1002.46
2018-12-21T02:03:45.955Z,1002.41
2018-12-21T02:04:45.927Z,1002.39
2018-12-21T02:05:45.887Z,1002.38
2018-12-21T02:06:45.842Z,1002.33
2018-12-21T02:07:45.809Z,1002.30
2018-12-21T02:08:45.778Z,1002.30
2018-12-21T02:09:45.747Z,1002.29
2018-12-21T02:10:45.714Z,1002.29
2018-12-21T02:11:45.674Z,1002.27
2018-12-21T02:12:45.637Z,1002.27
2018-12-21T02:13:45.608Z,1002.24
2018-12-21T02:14:45.565Z,1002.21
2018-12-21T02:15:45.533Z,1002.23
2018-12-21T02:16:45.496Z,1002.23
2018-12-21T02:17:45.463Z,1002.19
2018-12-21T02:18:45.430Z,1002.15
2018-12-21T02:19:45.389Z,1002.14
2018-12-21T02:20:45.350Z,1002.13
2018-12-21T02:21:45.325Z,1002.12
2018-12-21T02:22:45.288Z,1002.10
2018-12-21T02:23:45.254Z,1002.03
2018-12-21T02:24:45.228Z,1002.02
2018-12-21T02:25:45.191Z,1001.95
2018-12-21T02:26:45.145Z,1001.91
2018-12-21T02:27:45.104Z,1001.88
2018-12-21T02:28:45.087Z,1001.85
2018-12-21T02:29:45.039Z,1001.78
2018-12-21T02:30:45.026Z,1001.80
2018-12-21T02:31:44.979Z,1001.72
2018-12-21T02:32:44.936Z,1001.73
2018-12-21T02:33:44.904Z,1001.69
2018-12-21T02:34:44.866Z,1001.63
2018-12-21T02:35:44.841Z,1001.62
2018-12-21T02:36:44.800Z,1001.59
2018-12-21T02:37:44.771Z,1001.58
2018-12-21T02:38:44.724Z,1001.52
2018-12-21T02:39:44.697Z,1001.49
2018-12-21T02:40:44.659Z,1001.50
2018-12-21T02:41:44.627Z,1001.47
2018-12-21T02:42:44.591Z,1001.46
2018-12-21T02:43:44.559Z,1001.44
2018-12-21T02:44:44.519Z,1001.44
2018-12-21T02:45:44.505Z,1001.42
2018-12-21T02:46:44.448Z,1001.40
2018-12-21T02:47:44.412Z,1001.36
2018-12-21T02:48:44.385Z,1001.33
2018-12-21T02:49:44.345Z,1001.32
2018-12-21T02:50:44.300Z,1001.29
2018-12-21T02:51:44.276Z,1001.29
2018-12-21T02:52:44.246Z,1001.24
2018-12-21T02:53:44.206Z,1001.22
2018-12-21T02:54:44.176Z,1001.21
2018-12-21T02:55:44.135Z,1001.23
2018-12-21T02:56:44.102Z,1001.19
2018-12-21T02:57:44.066Z,1001.18
2018-12-21T02:58:44.033Z,1001.17
2018-12-21T02:59:43.993Z,1001.18
2018-12-21T03:00:43.962Z,1001.19
2018-12-21T03:01:43.937Z,1001.20
2018-12-21T03:02:43.895Z,1001.19
2018-12-21T03:03:43.861Z,1001.14
2018-12-21T03:04:43.817Z,1001.13
2018-12-21T03:05:43.792Z,1001.08
2018-12-21T03:06:43.753Z,1001.11
2018-12-21T03:07:43.711Z,1001.05
2018-12-21T03:08:43.685Z,1001.06
2018-12-21T03:09:43.652Z,1001.06
2018-12-21T03:10:43.619Z,1001.04
2018-12-21T03:11:43.586Z,1001.05
2018-12-21T03:12:43.555Z,1001.07
2018-12-21T03:13:43.511Z,1001.01
2018-12-21T03:14:43.480Z,1000.95
2018-12-21T03:15:43.444Z,1000.93
2018-12-21T03:16:43.414Z,1000.93
2018-12-21T03:17:43.373Z,1000.91
2018-12-21T03:18:43.337Z,1000.87
2018-12-21T03:19:43.299Z,1000.86
2018-12-21T03:20:43.266Z,1000.75
2018-12-21T03:21:43.238Z,1000.72
2018-12-21T03:22:43.197Z,1000.72
2018-12-21T03:23:43.166Z,1000.67
2018-12-21T03:24:43.133Z,1000.61
2018-12-21T03:25:43.088Z,1000.56
2018-12-21T03:26:43.052Z,1000.61
2018-12-21T03:27:43.022Z,1000.52
2018-12-21T03:28:42.988Z,1000.56
2018-12-21T03:29:42.963Z,1000.51
2018-12-21T03:30:42.939Z,1000.46
2018-12-21T03:31:42.916Z,1000.44
2018-12-21T03:32:42.854Z,1000.32
2018-12-21T03:33:42.826Z,1000.39
2018-12-21T03:34:42.832Z,1000.35
2018-12-21T03:35:42.747Z,1000.33
2018-12-21T03:36:42.715Z,1000.26
2018-12-21T03:37:42.678Z,1000.21
2018-12-21T03:38:42.646Z,1000.22
2018-12-21T03:39:42.615Z,1000.19
2018-12-21T03:40:42.580Z,1000.20
2018-12-21T03:41:42.540Z,1000.17
2018-12-21T03:42:42.514Z,1000.15
2018-12-21T03:43:42.467Z,1000.08
2018-12-21T03:44:42.428Z,1000.12
2018-12-21T03:45:42.401Z,1000.10
2018-12-21T03:46:42.364Z,1000.06
2018-12-21T03:47:42.332Z,1000.08
2018-12-21T03:48:42.301Z,1000.03
2018-12-21T03:49:42.269Z,1000.03
2018-12-21T03:50:42.224Z,1000.03
2018-12-21T03:51:42.198Z,999.95
2018-12-21T03:52:42.160Z,999.91
2018-12-21T03:53:42.131Z,999.89
2018-12-21T03:54:42.089Z,999.85
2018-12-21T03:55:42.074Z,999.79
2018-12-21T03:56:42.020Z,999.78
2018-12-21T03:57:41.985Z,999.76
2018-12-21T03:58:41.951Z,999.71
2018-12-21T03:59:41.910Z,999.71
2018-12-21T04:00:41.878Z,999.68
2018-12-21T04:01:41.840Z,999.65
2018-12-21T04:02:41.808Z,999.54
2018-12-21T04:03:41.770Z,999.54
2018-12-21T04:04:41.740Z,999.55
2018-12-21T04:05:41.698Z,999.58
2018-12-21T04:06:41.674Z,999.57
2018-12-21T04:07:41.630Z,999.55
2018-12-21T04:08:41.599Z,999.55
2018-12-21T04:09:41.564Z,999.57
2018-12-21T04:10:41.529Z,999.54
2018-12-21T04:11:41.494Z,999.52
2018-12-21T04:12:41.473Z,999.46
2018-12-21T04:13:41.426Z,999.40
2018-12-21T04:14:41.392Z,999.40
2018-12-21T04:15:41.364Z,999.35
2018-12-21T04:16:41.320Z,999.30
2018-12-21T04:17:41.314Z,999.25
2018-12-21T04:18:41.251Z,999.21
2018-12-21T04:19:41.215Z,999.11
2018-12-21T04:20:41.187Z,999.07
2018-12-21T04:21:41.151Z,999.10
2018-12-21T04:22:41.123Z,999.05
2018-12-21T04:23:41.076Z,999.02
2018-12-21T04:24:41.043Z,999.02
2018-12-21T04:25:40.999Z,999.00
2018-12-21T04:26:40.976Z,999.01
2018-12-21T04:27:40.935Z,998.98
2018-12-21T04:28:40.906Z,998.91
2018-12-21T04:29:40.871Z,998.95
2018-12-21T04:30:40.846Z,998.84
2018-12-21T04:31:40.799Z,998.89
2018-12-21T04:32:40.771Z,998.90
2018-12-21T04:33:40.746Z,998.94
2018-12-21T04:34:40.703Z,998.96
2018-12-21T04:35:40.663Z,998.92
2018-12-21T04:36:40.628Z,998.85
2018-12-21T04:37:40.596Z,998.82
2018-12-21T04:38:40.573Z,998.70
2018-12-21T04:39:40.522Z,998.68
2018-12-21T04:40:40.493Z,998.65
2018-12-21T04:41:40.456Z,998.66
2018-12-21T04:42:40.420Z,998.63
2018-12-21T04:43:40.385Z,998.66
2018-12-21T04:44:40.358Z,998.67
2018-12-21T04:45:40.318Z,998.61
2018-12-21T04:46:40.284Z,998.62
2018-12-21T04:47:40.250Z,998.60
2018-12-21T04:48:40.210Z,998.57
2018-12-21T04:49:40.184Z,998.52
2018-12-21T04:50:40.144Z,998.49
2018-12-21T04:51:40.105Z,998.46
2018-12-21T04:52:43.450Z,998.50
2018-12-21T04:53:40.040Z,998.51
2018-12-21T04:54:39.998Z,998.44
2018-12-21T04:55:39.968Z,998.43
2018-12-21T04:56:39.926Z,998.41
2018-12-21T04:57:39.892Z,998.32
2018-12-21T04:58:39.865Z,998.31
2018-12-21T04:59:39.823Z,998.34
2018-12-21T05:00:39.793Z,998.27
2018-12-21T05:01:39.757Z,998.16
2018-12-21T05:02:39.723Z,998.12
2018-12-21T05:03:39.692Z,998.10
2018-12-21T05:04:39.647Z,998.07
2018-12-21T05:05:39.652Z,998.06
2018-12-21T05:06:39.589Z,998.05
2018-12-21T05:07:39.546Z,998.07
2018-12-21T05:08:39.505Z,998.05
2018-12-21T05:09:39.466Z,998.00
2018-12-21T05:10:39.440Z,997.98
2018-12-21T05:11:39.408Z,997.94
2018-12-21T05:12:39.363Z,997.93
2018-12-21T05:13:39.328Z,997.88
2018-12-21T05:14:39.291Z,997.84
2018-12-21T05:15:39.252Z,997.78
2018-12-21T05:16:39.216Z,997.75
2018-12-21T05:17:39.191Z,997.78
2018-12-21T05:18:39.153Z,997.69
2018-12-21T05:19:39.112Z,997.70
2018-12-21T05:20:39.081Z,997.65
2018-12-21T05:21:39.048Z,997.60
2018-12-21T05:22:39.009Z,997.57
2018-12-21T05:23:38.968Z,997.52
2018-12-21T05:24:38.942Z,997.53
2018-12-21T05:25:38.911Z,997.46
2018-12-21T05:26:38.876Z,997.48
2018-12-21T05:27:38.834Z,997.48
2018-12-21T05:28:38.803Z,997.41
2018-12-21T05:29:39.699Z,997.44
2018-12-21T05:30:38.734Z,997.44
2018-12-21T05:31:38.692Z,997.43
2018-12-21T05:32:38.658Z,997.40
2018-12-21T05:33:38.629Z,997.37
2018-12-21T05:34:38.587Z,997.38
2018-12-21T05:35:38.549Z,997.29
2018-12-21T05:36:38.510Z,997.28
2018-12-21T05:37:38.513Z,997.28
2018-12-21T05:38:38.458Z,997.27
2018-12-21T05:39:38.414Z,997.20
2018-12-21T05:40:38.379Z,997.17
2018-12-21T05:41:38.349Z,997.11
2018-12-21T05:42:38.304Z,997.10
2018-12-21T05:43:38.265Z,997.10
2018-12-21T05:44:38.240Z,997.03
2018-12-21T05:45:38.195Z,996.95
2018-12-21T05:46:38.165Z,996.92
2018-12-21T05:47:38.154Z,996.89
2018-12-21T05:48:38.149Z,996.83
2018-12-21T05:49:38.088Z,996.78
2018-12-21T05:50:38.078Z,996.82
2018-12-21T05:51:37.993Z,996.75
2018-12-21T05:52:37.991Z,996.67
2018-12-21T05:53:37.924Z,996.69
2018-12-21T05:54:37.902Z,996.66
2018-12-21T05:55:37.849Z,996.69
2018-12-21T05:56:37.815Z,996.60
2018-12-21T05:57:37.782Z,996.64
2018-12-21T05:58:37.769Z,996.64
2018-12-21T05:59:37.698Z,996.61
2018-12-21T06:00:37.708Z,996.54
2018-12-21T06:01:37.635Z,996.44
2018-12-21T06:02:37.604Z,996.48
2018-12-21T06:03:37.601Z,996.49
2018-12-21T06:04:37.555Z,996.49
2018-12-21T06:05:37.492Z,996.55
2018-12-21T06:06:37.470Z,996.55
2018-12-21T06:07:37.421Z,996.48
2018-12-21T06:08:37.396Z,996.38
2018-12-21T06:09:37.391Z,996.41
2018-12-21T06:10:37.318Z,996.57
2018-12-21T06:11:37.279Z,996.60
2018-12-21T06:12:37.244Z,996.43
2018-12-21T06:13:37.211Z,996.39
2018-12-21T06:14:37.179Z,996.17
2018-12-21T06:15:37.140Z,996.26
2018-12-21T06:16:37.116Z,996.36
2018-12-21T06:17:37.065Z,996.38
2018-12-21T06:18:37.069Z,996.41
2018-12-21T06:19:37.016Z,996.34
2018-12-21T06:20:36.968Z,996.32
2018-12-21T06:21:36.940Z,996.37
2018-12-21T06:22:36.897Z,996.36
2018-12-21T06:23:36.865Z,996.23
2018-12-21T06:24:36.820Z,996.14
2018-12-21T06:25:36.872Z,996.19
2018-12-21T06:26:36.760Z,996.16
2018-12-21T06:27:36.726Z,996.20
2018-12-21T06:28:36.685Z,996.17
2018-12-21T06:29:36.687Z,996.20
2018-12-21T06:30:36.623Z,996.23
2018-12-21T06:31:36.590Z,996.18
2018-12-21T06:32:36.665Z,996.19
2018-12-21T06:33:36.506Z,996.20
2018-12-21T06:34:36.475Z,996.14
2018-12-21T06:35:36.475Z,996.08
2018-12-21T06:36:36.406Z,996.05
2018-12-21T06:37:36.375Z,995.99
2018-12-21T06:38:36.337Z,996.03
2018-12-21T06:39:36.295Z,996.01
2018-12-21T06:40:36.263Z,995.97
2018-12-21T06:41:36.263Z,995.87
2018-12-21T06:42:36.198Z,995.81
2018-12-21T06:43:36.191Z,995.90
2018-12-21T06:44:36.120Z,995.85
2018-12-21T06:45:36.083Z,995.85
2018-12-21T06:46:36.062Z,995.86
2018-12-21T06:47:36.053Z,995.82
2018-12-21T06:48:35.977Z,995.78
2018-12-21T06:49:35.951Z,995.77
2018-12-21T06:50:35.917Z,995.82
2018-12-21T06:51:35.898Z,995.71
2018-12-21T06:52:35.846Z,995.67
2018-12-21T06:53:35.813Z,995.66
2018-12-21T06:54:35.786Z,995.64
2018-12-21T06:55:35.751Z,995.61
2018-12-21T06:56:35.702Z,995.63
2018-12-21T06:57:35.672Z,995.59
2018-12-21T06:58:35.633Z,995.53
2018-12-21T06:59:35.613Z,995.54
2018-12-21T07:00:35.552Z,995.52
2018-12-21T07:01:35.523Z,995.47
2018-12-21T07:02:35.492Z,995.49
2018-12-21T07:03:35.457Z,995.57
2018-12-21T07:04:35.428Z,995.49
2018-12-21T07:05:35.398Z,995.47
2018-12-21T07:06:35.358Z,995.48
2018-12-21T07:07:35.314Z,995.49
2018-12-21T07:08:35.285Z,995.55
2018-12-21T07:09:35.252Z,995.53
2018-12-21T07:10:35.232Z,995.50
2018-12-21T07:11:35.181Z,995.51
2018-12-21T07:12:35.142Z,995.45
2018-12-21T07:13:35.107Z,995.45
2018-12-21T07:14:35.092Z,995.40
2018-12-21T07:15:35.046Z,995.41
2018-12-21T07:16:35.009Z,995.41
2018-12-21T07:17:34.969Z,995.33
2018-12-21T07:18:34.960Z,995.33
2018-12-21T07:19:34.898Z,995.31
2018-12-21T07:20:34.864Z,995.29
2018-12-21T07:21:34.842Z,995.24
2018-12-21T07:22:34.792Z,995.21
2018-12-21T07:23:34.764Z,995.20
2018-12-21T07:24:34.729Z,995.22
2018-12-21T07:25:34.707Z,995.19
2018-12-21T07:26:34.654Z,995.12
2018-12-21T07:27:34.684Z,995.08
2018-12-21T07:28:34.609Z,995.00
2018-12-21T07:29:34.549Z,995.03
2018-12-21T07:30:34.564Z,994.95
2018-12-21T07:31:34.477Z,994.94
2018-12-21T07:32:34.450Z,994.95
2018-12-21T07:33:34.420Z,994.94
2018-12-21T07:34:34.374Z,994.92
2018-12-21T07:35:34.344Z,994.95
2018-12-21T07:36:34.316Z,994.90
2018-12-21T07:37:34.305Z,994.88
2018-12-21T07:38:34.313Z,994.86
2018-12-21T07:39:34.248Z,994.84
2018-12-21T07:40:34.226Z,994.86
2018-12-21T07:41:34.154Z,994.76
2018-12-21T07:42:34.095Z,994.76
2018-12-21T07:43:34.094Z,994.75
2018-12-21T07:44:34.090Z,994.72
2018-12-21T07:45:33.994Z,994.71
2018-12-21T07:46:33.959Z,994.68
2018-12-21T07:47:33.917Z,994.64
2018-12-21T07:48:33.886Z,994.61
2018-12-21T07:49:33.859Z,994.58
2018-12-21T07:50:33.859Z,994.56
2018-12-21T07:51:33.779Z,994.49
2018-12-21T07:52:33.805Z,994.52
2018-12-21T07:53:35.867Z,994.48
2018-12-21T07:54:33.701Z,994.44
2018-12-21T07:55:33.651Z,994.45
2018-12-21T07:56:33.614Z,994.38
2018-12-21T07:57:33.614Z,994.37
2018-12-21T07:58:33.560Z,994.37
2018-12-21T07:59:33.535Z,994.35
2018-12-21T08:00:33.471Z,994.22
2018-12-21T08:01:33.435Z,994.16
2018-12-21T08:02:33.391Z,994.07
2018-12-21T08:03:33.359Z,994.00
2018-12-21T08:04:33.330Z,993.98
2018-12-21T08:05:33.324Z,993.91
2018-12-21T08:06:33.255Z,993.82
2018-12-21T08:07:33.216Z,993.79
2018-12-21T08:08:33.196Z,993.71
2018-12-21T08:09:33.148Z,993.66
2018-12-21T08:10:33.124Z,993.47
2018-12-21T08:11:33.104Z,993.43
2018-12-21T08:12:33.059Z,993.47
2018-12-21T08:13:33.009Z,993.47
2018-12-21T08:14:32.990Z,993.36
2018-12-21T08:15:32.947Z,993.35
2018-12-21T08:16:32.910Z,993.28
2018-12-21T08:17:32.865Z,993.28
2018-12-21T08:18:32.836Z,993.24
2018-12-21T08:19:32.856Z,993.35
2018-12-21T08:20:32.771Z,993.47
2018-12-21T08:21:32.740Z,993.22
2018-12-21T08:22:32.711Z,993.26
2018-12-21T08:23:32.659Z,993.36
2018-12-21T08:24:32.636Z,993.32
2018-12-21T08:25:32.594Z,993.23
2018-12-21T08:26:32.556Z,993.22
2018-12-21T08:27:32.521Z,993.28
2018-12-21T08:28:32.489Z,993.26
2018-12-21T08:29:32.450Z,993.32
2018-12-21T08:30:32.411Z,993.37
2018-12-21T08:31:32.391Z,993.20
2018-12-21T08:32:32.371Z,993.11
2018-12-21T08:33:32.326Z,993.14
2018-12-21T08:34:32.286Z,993.24
2018-12-21T08:35:32.245Z,993.30
2018-12-21T08:36:32.219Z,993.27
2018-12-21T08:37:32.220Z,993.22
2018-12-21T08:38:32.138Z,993.20
2018-12-21T08:39:32.153Z,993.23
2018-12-21T08:40:32.080Z,993.20
2018-12-21T08:41:32.065Z,993.20
2018-12-21T08:42:32.016Z,993.18
2018-12-21T08:43:31.971Z,993.11
2018-12-21T08:44:31.938Z,993.10
2018-12-21T08:45:31.890Z,993.06
2018-12-21T08:46:31.897Z,993.04
2018-12-21T08:47:31.836Z,993.03
2018-12-21T08:48:31.811Z,992.92
2018-12-21T08:49:32.419Z,992.96
2018-12-21T08:50:31.727Z,992.92
2018-12-21T08:51:31.776Z,993.01
2018-12-21T08:52:31.661Z,992.93
2018-12-21T08:53:31.642Z,992.89
2018-12-21T08:54:31.609Z,992.85
2018-12-21T08:55:31.552Z,992.79
2018-12-21T08:56:31.516Z,992.84
2018-12-21T08:57:31.476Z,992.72
2018-12-21T08:58:31.451Z,992.72
2018-12-21T08:59:31.411Z,992.72
2018-12-21T09:00:31.388Z,992.67
2018-12-21T09:01:31.336Z,992.64
2018-12-21T09:02:31.328Z,992.60
2018-12-21T09:03:31.272Z,992.65
2018-12-21T09:04:32.291Z,992.66
2018-12-21T09:05:31.213Z,992.60
2018-12-21T09:06:31.163Z,992.75
2018-12-21T09:07:31.128Z,992.74
2018-12-21T09:08:31.114Z,992.72
2018-12-21T09:09:31.067Z,992.67
2018-12-21T09:10:31.027Z,992.71
2018-12-21T09:11:30.988Z,992.63
2018-12-21T09:12:30.954Z,992.63
2018-12-21T09:13:30.928Z,992.62
2018-12-21T09:14:30.942Z,992.56
2018-12-21T09:15:30.863Z,992.60
2018-12-21T09:16:30.823Z,992.59
2018-12-21T09:17:30.791Z,992.57
2018-12-21T09:18:30.789Z,992.49
2018-12-21T09:19:30.718Z,992.46
2018-12-21T09:20:30.689Z,992.32
2018-12-21T09:21:30.647Z,992.37
2018-12-21T09:22:30.623Z,992.36
2018-12-21T09:23:30.579Z,992.32
2018-12-21T09:24:30.562Z,992.33
2018-12-21T09:25:30.512Z,992.30
2018-12-21T09:26:30.523Z,992.30
2018-12-21T09:27:30.439Z,992.27
2018-12-21T09:28:30.439Z,992.37
2018-12-21T09:29:30.394Z,992.40
2018-12-21T09:30:30.369Z,992.34
2018-12-21T09:31:30.303Z,992.17
2018-12-21T09:32:30.277Z,992.30
2018-12-21T09:33:30.243Z,992.27
2018-12-21T09:34:30.212Z,992.21
2018-12-21T09:35:30.163Z,992.25
2018-12-21T09:36:30.135Z,992.27
2018-12-21T09:37:30.107Z,992.23
2018-12-21T09:38:30.059Z,992.12
2018-12-21T09:39:30.035Z,992.22
2018-12-21T09:40:29.998Z,992.28
2018-12-21T09:41:29.998Z,992.27
2018-12-21T09:42:29.928Z,992.20
2018-12-21T09:43:29.894Z,992.14
2018-12-21T09:44:29.862Z,992.31
2018-12-21T09:45:29.820Z,992.29
2018-12-21T09:46:29.789Z,992.36
2018-12-21T09:47:29.784Z,992.34
2018-12-21T09:48:29.728Z,992.34
2018-12-21T09:49:29.709Z,992.35
2018-12-21T09:50:29.663Z,992.30
2018-12-21T09:51:29.655Z,992.21
2018-12-21T09:52:29.595Z,992.20
2018-12-21T09:53:29.579Z,992.24
2018-12-21T09:54:29.527Z,992.26
2018-12-21T09:55:29.491Z,992.23
2018-12-21T09:56:29.459Z,992.25
2018-12-21T09:57:29.492Z,992.26
2018-12-21T09:58:29.390Z,992.09
2018-12-21T09:59:29.360Z,992.13
2018-12-21T10:00:29.324Z,992.11
2018-12-21T10:01:29.304Z,992.10
2018-12-21T10:02:35.714Z,992.09
2018-12-21T10:03:29.224Z,992.18
2018-12-21T10:04:29.189Z,992.26
2018-12-21T10:05:29.164Z,992.23
2018-12-21T10:06:29.125Z,992.17
2018-12-21T10:07:29.090Z,992.11
2018-12-21T10:08:29.045Z,992.21
2018-12-21T10:09:29.024Z,992.15
2018-12-21T10:10:28.980Z,992.30
2018-12-21T10:11:28.965Z,992.14
2018-12-21T10:12:28.929Z,992.18
2018-12-21T10:13:28.890Z,992.14
2018-12-21T10:14:28.855Z,992.19
2018-12-21T10:15:28.814Z,992.17
2018-12-21T10:16:28.786Z,992.19
2018-12-21T10:17:28.749Z,992.08
2018-12-21T10:18:28.740Z,992.18
2018-12-21T10:19:28.689Z,992.21
2018-12-21T10:20:28.669Z,992.22
2018-12-21T10:21:28.618Z,992.01
2018-12-21T10:22:28.600Z,992.06
2018-12-21T10:23:28.554Z,992.14
2018-12-21T10:24:28.520Z,992.10
2018-12-21T10:25:28.497Z,992.07
2018-12-21T10:26:28.493Z,992.10
2018-12-21T10:27:28.448Z,992.28
2018-12-21T10:28:28.396Z,992.20
2018-12-21T10:29:28.364Z,992.16
2018-12-21T10:30:28.342Z,992.13
2018-12-21T10:31:28.294Z,992.23
2018-12-21T10:32:28.261Z,992.14
2018-12-21T10:33:28.237Z,992.11
2018-12-21T10:34:28.191Z,992.16
2018-12-21T10:35:28.162Z,992.09
2018-12-21T10:36:28.159Z,992.03
2018-12-21T10:37:28.095Z,992.07
2018-12-21T10:38:28.074Z,992.06
2018-12-21T10:39:28.031Z,992.05
2018-12-21T10:40:28.024Z,992.17
2018-12-21T10:41:27.970Z,992.10
2018-12-21T10:42:27.959Z,992.22
2018-12-21T10:43:27.905Z,992.12
2018-12-21T10:44:27.972Z,992.23
2018-12-21T10:45:27.860Z,992.20
2018-12-21T10:46:27.824Z,992.16
2018-12-21T10:47:27.776Z,992.14
2018-12-21T10:48:27.746Z,992.12
2018-12-21T10:49:31.879Z,992.16
2018-12-21T10:50:27.681Z,992.14
2018-12-21T10:51:27.646Z,992.19
2018-12-21T10:52:27.614Z,992.20
2018-12-21T10:53:27.600Z,992.32
2018-12-21T10:54:27.550Z,992.18
2018-12-21T10:55:27.515Z,992.16
2018-12-21T10:56:27.501Z,992.12
2018-12-21T10:57:27.453Z,992.15
2018-12-21T10:58:27.421Z,992.12
2018-12-21T10:59:27.398Z,992.21
2018-12-21T11:00:27.358Z,992.18
2018-12-21T11:01:27.322Z,992.22
2018-12-21T11:02:27.303Z,992.14
2018-12-21T11:03:27.267Z,992.09
2018-12-21T11:04:27.232Z,992.16
2018-12-21T11:05:27.193Z,992.13
2018-12-21T11:06:27.163Z,992.19
2018-12-21T11:07:27.141Z,992.18
2018-12-21T11:08:27.109Z,992.09
2018-12-21T11:09:27.081Z,992.25
2018-12-21T11:10:27.060Z,992.35
2018-12-21T11:11:27.018Z,992.24
2018-12-21T11:12:26.977Z,992.21
2018-12-21T11:13:26.961Z,992.26
2018-12-21T11:14:26.907Z,992.23
2018-12-21T11:15:26.881Z,992.22
2018-12-21T11:16:26.860Z,992.35
2018-12-21T11:17:26.824Z,992.21
2018-12-21T11:18:26.788Z,992.18
2018-12-21T11:19:26.762Z,992.25
2018-12-21T11:20:26.717Z,992.35
2018-12-21T11:21:26.705Z,992.47
2018-12-21T11:22:26.676Z,992.30
2018-12-21T11:23:26.629Z,992.34
2018-12-21T11:24:35.226Z,992.30
2018-12-21T11:25:26.562Z,992.21
2018-12-21T11:26:26.533Z,992.38
2018-12-21T11:27:26.512Z,992.30
2018-12-21T11:28:26.479Z,992.34
2018-12-21T11:29:26.454Z,992.29
2018-12-21T11:30:26.408Z,992.28
2018-12-21T11:31:26.381Z,992.37
2018-12-21T11:32:26.353Z,992.44
2018-12-21T11:33:26.323Z,992.30
2018-12-21T11:34:26.285Z,992.36
2018-12-21T11:35:26.254Z,992.39
2018-12-21T11:36:26.222Z,992.33
2018-12-21T11:37:26.199Z,992.46
2018-12-21T11:38:26.149Z,992.48
2018-12-21T11:39:26.123Z,992.34
2018-12-21T11:40:26.089Z,992.28
2018-12-21T11:41:26.065Z,992.34
2018-12-21T11:42:26.034Z,992.28
2018-12-21T11:43:26.000Z,992.36
2018-12-21T11:44:25.976Z,992.47
2018-12-21T11:45:25.941Z,992.27
2018-12-21T11:46:25.903Z,992.36
2018-12-21T11:47:25.892Z,992.38
2018-12-21T11:48:25.848Z,992.29
2018-12-21T11:49:25.825Z,992.38
2018-12-21T11:50:25.783Z,992.37
2018-12-21T11:51:25.752Z,992.42
2018-12-21T11:52:25.715Z,992.34
2018-12-21T11:53:25.694Z,992.23
2018-12-21T11:54:26.806Z,992.48
2018-12-21T11:55:25.627Z,992.35
2018-12-21T11:56:25.595Z,992.27
2018-12-21T11:57:25.564Z,992.38
2018-12-21T11:58:25.533Z,992.39
2018-12-21T11:59:25.498Z,992.37
2018-12-21T12:00:25.475Z,992.42
2018-12-21T12:01:25.436Z,992.50
2018-12-21T12:02:25.417Z,992.52
2018-12-21T12:03:25.375Z,992.43
2018-12-21T12:04:25.344Z,992.46
2018-12-21T12:05:25.311Z,992.45
2018-12-21T12:06:25.284Z,992.40
2018-12-21T12:07:25.312Z,992.51
2018-12-21T12:08:25.224Z,992.52
2018-12-21T12:09:25.190Z,992.37
2018-12-21T12:10:25.159Z,992.46
2018-12-21T12:11:25.116Z,992.35
2018-12-21T12:12:25.106Z,992.46
2018-12-21T12:13:25.066Z,992.50
2018-12-21T12:14:25.031Z,992.53
2018-12-21T12:15:25.006Z,992.60
2018-12-21T12:16:24.971Z,992.48
2018-12-21T12:17:24.950Z,992.39
2018-12-21T12:18:24.914Z,992.42
2018-12-21T12:19:24.873Z,992.56
2018-12-21T12:20:24.859Z,992.53
2018-12-21T12:21:24.812Z,992.53